sensor_id;sensor_type;location;lat;lon;timestamp;temperature;humidity
38910;DHT22;24676;51.360;12.354;2022-07-23T04:01:48;17.60;99.90
38910;DHT22;24676;51.360;12.354;2022-07-23T04:04:32;17.70;99.90
38910;DHT22;24676;51.360;12.354;2022-07-23T04:07:17;17.80;99.90
38910;DHT22;24676;51.360;12.354;2022-07-23T04:10:04;17.80;99.90
38910;DHT22;24676;51.360;12.354;2022-07-23T04:12:50;17.80;99.90
38910;DHT22;24676;51.360;12.354;2022-07-23T04:15:34;17.80;99.90
38910;DHT22;24676;51.360;12.354;2022-07-23T04:18:19;17.90;99.90
38910;DHT22;24676;51.360;12.354;2022-07-23T04:21:05;17.90;99.90
38910;DHT22;24676;51.360;12.354;2022-07-23T04:23:49;17.90;99.90
38910;DHT22;24676;51.360;12.354;2022-07-23T04:26:34;17.80;99.90
38910;DHT22;24676;51.360;12.354;2022-07-23T04:29:19;17.80;99.90
38910;DHT22;24676;51.360;12.354;2022-07-23T04:32:04;17.80;99.90
38910;DHT22;24676;51.360;12.354;2022-07-23T04:34:49;17.70;99.90
38910;DHT22;24676;51.360;12.354;2022-07-23T04:37:33;17.70;99.90
38910;DHT22;24676;51.360;12.354;2022-07-23T04:40:18;17.80;99.90
38910;DHT22;24676;51.360;12.354;2022-07-23T04:43:02;17.80;99.90
38910;DHT22;24676;51.360;12.354;2022-07-23T04:45:47;17.70;99.90
38910;DHT22;24676;51.360;12.354;2022-07-23T04:48:31;17.50;99.90
38910;DHT22;24676;51.360;12.354;2022-07-23T04:51:15;17.20;99.90
38910;DHT22;24676;51.360;12.354;2022-07-23T04:53:59;16.90;99.90
38910;DHT22;24676;51.360;12.354;2022-07-23T04:56:44;16.50;99.90
38910;DHT22;24676;51.360;12.354;2022-07-23T04:59:28;16.30;99.90
38910;DHT22;24676;51.360;12.354;2022-07-23T05:02:12;16.20;99.90
38910;DHT22;24676;51.360;12.354;2022-07-23T05:04:56;16.10;99.90
38910;DHT22;24676;51.360;12.354;2022-07-23T05:07:40;16.10;99.90
38910;DHT22;24676;51.360;12.354;2022-07-23T05:10:24;16.10;99.90
38910;DHT22;24676;51.360;12.354;2022-07-23T05:13:09;16.10;99.90
38910;DHT22;24676;51.360;12.354;2022-07-23T05:15:53;16.10;99.90
38910;DHT22;24676;51.360;12.354;2022-07-23T05:18:37;16.10;99.90
38910;DHT22;24676;51.360;12.354;2022-07-23T05:21:22;16.10;99.90
38910;DHT22;24676;51.360;12.354;2022-07-23T05:24:06;16.20;99.90
38910;DHT22;24676;51.360;12.354;2022-07-23T05:26:51;16.10;99.90
38910;DHT22;24676;51.360;12.354;2022-07-23T05:29:35;16.10;99.90
38910;DHT22;24676;51.360;12.354;2022-07-23T05:32:20;16.00;99.90
38910;DHT22;24676;51.360;12.354;2022-07-23T05:35:05;15.90;99.90
38910;DHT22;24676;51.360;12.354;2022-07-23T05:37:49;15.90;99.90
38910;DHT22;24676;51.360;12.354;2022-07-23T05:40:36;15.90;99.90
38910;DHT22;24676;51.360;12.354;2022-07-23T05:43:21;15.90;99.90
38910;DHT22;24676;51.360;12.354;2022-07-23T05:46:05;15.90;99.90
38910;DHT22;24676;51.360;12.354;2022-07-23T05:48:49;15.90;99.90
38910;DHT22;24676;51.360;12.354;2022-07-23T05:51:33;15.90;99.90
38910;DHT22;24676;51.360;12.354;2022-07-23T05:54:18;16.00;99.90
38910;DHT22;24676;51.360;12.354;2022-07-23T05:57:02;16.00;99.90
38910;DHT22;24676;51.360;12.354;2022-07-23T05:59:47;16.10;99.90
38910;DHT22;24676;51.360;12.354;2022-07-23T06:02:32;16.10;99.90
38910;DHT22;24676;51.360;12.354;2022-07-23T06:05:16;16.20;99.90
38910;DHT22;24676;51.360;12.354;2022-07-23T06:08:00;16.30;99.90
38910;DHT22;24676;51.360;12.354;2022-07-23T06:10:44;16.50;99.90
38910;DHT22;24676;51.360;12.354;2022-07-23T06:13:28;16.60;99.90
38910;DHT22;24676;51.360;12.354;2022-07-23T06:16:12;16.90;99.90
38910;DHT22;24676;51.360;12.354;2022-07-23T06:18:57;17.10;99.90
38910;DHT22;24676;51.360;12.354;2022-07-23T06:21:41;17.40;99.90
38910;DHT22;24676;51.360;12.354;2022-07-23T06:24:26;17.80;99.90
38910;DHT22;24676;51.360;12.354;2022-07-23T06:27:10;17.90;99.90
38910;DHT22;24676;51.360;12.354;2022-07-23T06:29:54;18.00;99.90
38910;DHT22;24676;51.360;12.354;2022-07-23T06:32:38;18.10;99.90
38910;DHT22;24676;51.360;12.354;2022-07-23T06:35:22;18.30;99.90
38910;DHT22;24676;51.360;12.354;2022-07-23T06:38:07;18.50;99.90
38910;DHT22;24676;51.360;12.354;2022-07-23T06:40:51;19.40;99.90
38910;DHT22;24676;51.360;12.354;2022-07-23T06:43:35;21.70;99.90
38910;DHT22;24676;51.360;12.354;2022-07-23T06:46:20;22.40;99.90
38910;DHT22;24676;51.360;12.354;2022-07-23T06:49:05;22.20;99.90
38910;DHT22;24676;51.360;12.354;2022-07-23T06:51:49;21.60;99.90
38910;DHT22;24676;51.360;12.354;2022-07-23T06:54:34;21.00;99.90
38910;DHT22;24676;51.360;12.354;2022-07-23T06:57:18;20.50;99.90
38910;DHT22;24676;51.360;12.354;2022-07-23T07:00:03;20.10;99.90
38910;DHT22;24676;51.360;12.354;2022-07-23T07:02:48;19.70;99.90
38910;DHT22;24676;51.360;12.354;2022-07-23T07:05:32;19.40;99.90
38910;DHT22;24676;51.360;12.354;2022-07-23T07:08:16;19.20;99.90
38910;DHT22;24676;51.360;12.354;2022-07-23T07:11:00;19.10;99.90
38910;DHT22;24676;51.360;12.354;2022-07-23T07:13:45;19.00;99.90
38910;DHT22;24676;51.360;12.354;2022-07-23T07:16:28;19.00;99.90
38910;DHT22;24676;51.360;12.354;2022-07-23T07:19:13;19.10;99.90
38910;DHT22;24676;51.360;12.354;2022-07-23T07:21:57;19.20;99.90
38910;DHT22;24676;51.360;12.354;2022-07-23T07:24:41;19.30;99.90
38910;DHT22;24676;51.360;12.354;2022-07-23T07:27:26;19.30;99.90
38910;DHT22;24676;51.360;12.354;2022-07-23T07:30:11;19.20;99.90
38910;DHT22;24676;51.360;12.354;2022-07-23T07:32:55;19.30;99.90
38910;DHT22;24676;51.360;12.354;2022-07-23T07:35:39;19.20;99.90
38910;DHT22;24676;51.360;12.354;2022-07-23T07:38:24;19.20;99.90
38910;DHT22;24676;51.360;12.354;2022-07-23T07:41:08;19.20;99.90
38910;DHT22;24676;51.360;12.354;2022-07-23T07:43:54;19.30;99.90
38910;DHT22;24676;51.360;12.354;2022-07-23T07:46:38;19.60;99.90
38910;DHT22;24676;51.360;12.354;2022-07-23T07:49:21;19.80;99.90
38910;DHT22;24676;51.360;12.354;2022-07-23T07:52:06;19.70;99.90
38910;DHT22;24676;51.360;12.354;2022-07-23T07:54:50;19.60;99.90
38910;DHT22;24676;51.360;12.354;2022-07-23T07:57:35;19.50;99.90
38910;DHT22;24676;51.360;12.354;2022-07-23T08:00:20;19.50;99.90
38910;DHT22;24676;51.360;12.354;2022-07-23T08:03:04;19.50;99.90
38910;DHT22;24676;51.360;12.354;2022-07-23T08:05:48;19.40;99.90
38910;DHT22;24676;51.360;12.354;2022-07-23T08:08:33;19.70;99.90
38910;DHT22;24676;51.360;12.354;2022-07-23T08:11:17;20.30;99.90
38910;DHT22;24676;51.360;12.354;2022-07-23T08:14:02;20.80;99.90
38910;DHT22;24676;51.360;12.354;2022-07-23T08:16:46;20.90;99.90
38910;DHT22;24676;51.360;12.354;2022-07-23T08:19:31;21.10;99.90
38910;DHT22;24676;51.360;12.354;2022-07-23T08:22:15;21.20;99.90
38910;DHT22;24676;51.360;12.354;2022-07-23T08:25:00;21.40;99.90
38910;DHT22;24676;51.360;12.354;2022-07-23T08:27:44;21.60;99.90
38910;DHT22;24676;51.360;12.354;2022-07-23T08:30:30;21.80;99.90
38910;DHT22;24676;51.360;12.354;2022-07-23T08:33:16;21.60;99.90
38910;DHT22;24676;51.360;12.354;2022-07-23T08:36:02;21.50;99.90
38910;DHT22;24676;51.360;12.354;2022-07-23T08:38:47;21.40;99.90
38910;DHT22;24676;51.360;12.354;2022-07-23T08:41:32;21.40;99.90
38910;DHT22;24676;51.360;12.354;2022-07-23T08:44:18;21.40;99.90
38910;DHT22;24676;51.360;12.354;2022-07-23T08:47:02;21.30;99.90
38910;DHT22;24676;51.360;12.354;2022-07-23T08:49:47;21.20;99.90
38910;DHT22;24676;51.360;12.354;2022-07-23T08:52:31;20.90;99.90
38910;DHT22;24676;51.360;12.354;2022-07-23T08:55:18;20.70;99.90
38910;DHT22;24676;51.360;12.354;2022-07-23T08:58:03;20.70;99.90
38910;DHT22;24676;51.360;12.354;2022-07-23T09:00:47;20.90;99.90
38910;DHT22;24676;51.360;12.354;2022-07-23T09:03:34;21.30;99.90
38910;DHT22;24676;51.360;12.354;2022-07-23T09:06:19;22.10;99.90
38910;DHT22;24676;51.360;12.354;2022-07-23T09:09:17;22.60;99.90
38910;DHT22;24676;51.360;12.354;2022-07-23T09:12:09;22.60;99.90
38910;DHT22;24676;51.360;12.354;2022-07-23T09:14:54;22.10;99.90
38910;DHT22;24676;51.360;12.354;2022-07-23T09:17:42;21.80;99.90
38910;DHT22;24676;51.360;12.354;2022-07-23T09:20:27;21.40;99.90
38910;DHT22;24676;51.360;12.354;2022-07-23T09:23:12;21.20;99.90
38910;DHT22;24676;51.360;12.354;2022-07-23T09:25:57;21.00;99.90
38910;DHT22;24676;51.360;12.354;2022-07-23T09:32:02;20.50;99.90
38910;DHT22;24676;51.360;12.354;2022-07-23T09:34:49;20.40;99.90
38910;DHT22;24676;51.360;12.354;2022-07-23T09:37:33;20.40;99.90
38910;DHT22;24676;51.360;12.354;2022-07-23T09:40:18;20.50;99.90
38910;DHT22;24676;51.360;12.354;2022-07-23T09:43:02;20.60;99.90
38910;DHT22;24676;51.360;12.354;2022-07-23T09:45:47;20.80;99.90
38910;DHT22;24676;51.360;12.354;2022-07-23T09:48:32;20.80;99.90
38910;DHT22;24676;51.360;12.354;2022-07-23T09:51:17;21.00;99.90
38910;DHT22;24676;51.360;12.354;2022-07-23T09:54:39;21.10;99.90
38910;DHT22;24676;51.360;12.354;2022-07-23T09:57:24;20.90;99.90
38910;DHT22;24676;51.360;12.354;2022-07-23T10:00:11;20.80;99.90
38910;DHT22;24676;51.360;12.354;2022-07-23T10:02:57;20.80;99.90
38910;DHT22;24676;51.360;12.354;2022-07-23T10:05:42;20.80;99.90
38910;DHT22;24676;51.360;12.354;2022-07-23T10:08:28;20.90;99.90
38910;DHT22;24676;51.360;12.354;2022-07-23T10:11:13;21.10;99.90
38910;DHT22;24676;51.360;12.354;2022-07-23T10:13:58;21.20;99.90
38910;DHT22;24676;51.360;12.354;2022-07-23T10:16:45;21.20;99.90
38910;DHT22;24676;51.360;12.354;2022-07-23T10:19:30;21.30;99.90
38910;DHT22;24676;51.360;12.354;2022-07-23T10:22:33;21.70;99.90
38910;DHT22;24676;51.360;12.354;2022-07-23T10:25:54;22.00;99.90
38910;DHT22;24676;51.360;12.354;2022-07-23T10:29:02;22.20;99.90
38910;DHT22;24676;51.360;12.354;2022-07-23T10:39:04;21.70;99.90
38910;DHT22;24676;51.360;12.354;2022-07-23T10:41:50;22.00;99.90
38910;DHT22;24676;51.360;12.354;2022-07-23T10:44:40;22.00;99.90
38910;DHT22;24676;51.360;12.354;2022-07-23T10:47:28;22.00;99.90
38910;DHT22;24676;51.360;12.354;2022-07-23T10:50:29;22.00;99.90
38910;DHT22;24676;51.360;12.354;2022-07-23T10:53:18;21.90;99.90
38910;DHT22;24676;51.360;12.354;2022-07-23T10:56:03;21.90;99.90
38910;DHT22;24676;51.360;12.354;2022-07-23T10:58:50;22.00;99.90
38910;DHT22;24676;51.360;12.354;2022-07-23T11:01:37;22.10;99.90
38910;DHT22;24676;51.360;12.354;2022-07-23T11:04:47;22.30;99.90
38910;DHT22;24676;51.360;12.354;2022-07-23T11:07:33;22.30;99.90
38910;DHT22;24676;51.360;12.354;2022-07-23T11:10:36;22.30;99.90
38910;DHT22;24676;51.360;12.354;2022-07-23T11:13:28;22.10;99.90
38910;DHT22;24676;51.360;12.354;2022-07-23T11:16:15;22.00;99.90
38910;DHT22;24676;51.360;12.354;2022-07-23T11:19:04;22.10;99.90
38910;DHT22;24676;51.360;12.354;2022-07-23T11:21:50;22.10;99.90
38910;DHT22;24676;51.360;12.354;2022-07-23T11:24:50;21.90;99.90
38910;DHT22;24676;51.360;12.354;2022-07-23T11:27:42;22.00;99.90
38910;DHT22;24676;51.360;12.354;2022-07-23T11:36:02;22.40;99.90
38910;DHT22;24676;51.360;12.354;2022-07-23T11:38:50;22.40;99.90
38910;DHT22;24676;51.360;12.354;2022-07-23T11:41:45;22.60;99.90
38910;DHT22;24676;51.360;12.354;2022-07-23T11:44:37;22.80;99.90
38910;DHT22;24676;51.360;12.354;2022-07-23T11:47:26;23.10;99.90
38910;DHT22;24676;51.360;12.354;2022-07-23T11:50:10;23.60;99.90
38910;DHT22;24676;51.360;12.354;2022-07-23T11:52:55;24.10;99.90
38910;DHT22;24676;51.360;12.354;2022-07-23T11:55:39;24.40;98.80
38910;DHT22;24676;51.360;12.354;2022-07-23T11:58:23;25.00;96.20
38910;DHT22;24676;51.360;12.354;2022-07-23T12:01:07;25.30;93.70
38910;DHT22;24676;51.360;12.354;2022-07-23T12:03:52;25.60;93.20
38910;DHT22;24676;51.360;12.354;2022-07-23T12:06:39;25.80;91.20
38910;DHT22;24676;51.360;12.354;2022-07-23T12:09:24;25.90;87.80
38910;DHT22;24676;51.360;12.354;2022-07-23T12:12:08;25.80;87.70
38910;DHT22;24676;51.360;12.354;2022-07-23T12:14:55;25.60;88.90
38910;DHT22;24676;51.360;12.354;2022-07-23T12:17:43;25.70;88.00
38910;DHT22;24676;51.360;12.354;2022-07-23T12:20:35;25.60;86.10
38910;DHT22;24676;51.360;12.354;2022-07-23T12:23:24;25.70;87.50
38910;DHT22;24676;51.360;12.354;2022-07-23T12:26:08;25.90;86.80
38910;DHT22;24676;51.360;12.354;2022-07-23T12:28:55;26.30;79.90
38910;DHT22;24676;51.360;12.354;2022-07-23T12:31:39;26.30;82.00
38910;DHT22;24676;51.360;12.354;2022-07-23T12:34:24;26.70;78.00
38910;DHT22;24676;51.360;12.354;2022-07-23T12:37:45;26.50;78.30
38910;DHT22;24676;51.360;12.354;2022-07-23T12:43:32;26.20;77.50
38910;DHT22;24676;51.360;12.354;2022-07-23T12:46:20;26.40;78.20
38910;DHT22;24676;51.360;12.354;2022-07-23T12:49:05;26.80;74.00
38910;DHT22;24676;51.360;12.354;2022-07-23T12:51:49;27.20;70.90
38910;DHT22;24676;51.360;12.354;2022-07-23T12:54:33;26.90;70.10
38910;DHT22;24676;51.360;12.354;2022-07-23T12:57:17;26.80;70.30
38910;DHT22;24676;51.360;12.354;2022-07-23T13:00:09;26.60;71.10
38910;DHT22;24676;51.360;12.354;2022-07-23T13:02:53;26.40;73.10
38910;DHT22;24676;51.360;12.354;2022-07-23T13:05:37;26.60;68.90
38910;DHT22;24676;51.360;12.354;2022-07-23T13:08:23;26.30;69.90
38910;DHT22;24676;51.360;12.354;2022-07-23T13:11:07;26.10;70.20
38910;DHT22;24676;51.360;12.354;2022-07-23T13:13:51;25.80;73.90
38910;DHT22;24676;51.360;12.354;2022-07-23T13:16:36;25.70;73.70
38910;DHT22;24676;51.360;12.354;2022-07-23T13:19:20;25.50;71.50
38910;DHT22;24676;51.360;12.354;2022-07-23T13:22:06;25.50;75.20
38910;DHT22;24676;51.360;12.354;2022-07-23T13:24:50;25.50;75.20
38910;DHT22;24676;51.360;12.354;2022-07-23T13:27:34;25.40;76.80
38910;DHT22;24676;51.360;12.354;2022-07-23T13:30:18;25.30;76.10
38910;DHT22;24676;51.360;12.354;2022-07-23T13:33:04;25.50;75.60
38910;DHT22;24676;51.360;12.354;2022-07-23T13:35:50;25.40;76.30
38910;DHT22;24676;51.360;12.354;2022-07-23T13:38:35;25.40;74.30
38910;DHT22;24676;51.360;12.354;2022-07-23T13:41:19;25.30;76.30
38910;DHT22;24676;51.360;12.354;2022-07-23T13:44:03;25.20;75.30
38910;DHT22;24676;51.360;12.354;2022-07-23T13:46:48;25.20;79.30
38910;DHT22;24676;51.360;12.354;2022-07-23T13:49:32;25.00;77.50
38910;DHT22;24676;51.360;12.354;2022-07-23T13:52:16;25.10;77.10
38910;DHT22;24676;51.360;12.354;2022-07-23T13:55:02;25.00;78.80
38910;DHT22;24676;51.360;12.354;2022-07-23T13:57:47;25.20;77.80
38910;DHT22;24676;51.360;12.354;2022-07-23T14:00:34;25.20;77.30
38910;DHT22;24676;51.360;12.354;2022-07-23T14:03:20;25.40;76.40
38910;DHT22;24676;51.360;12.354;2022-07-23T14:06:06;25.70;74.30
38910;DHT22;24676;51.360;12.354;2022-07-23T14:08:50;25.80;74.60
38910;DHT22;24676;51.360;12.354;2022-07-23T14:11:34;25.80;76.90
38910;DHT22;24676;51.360;12.354;2022-07-23T14:14:19;25.90;74.50
38910;DHT22;24676;51.360;12.354;2022-07-23T14:17:04;25.90;75.80
38910;DHT22;24676;51.360;12.354;2022-07-23T14:19:48;26.10;75.40
38910;DHT22;24676;51.360;12.354;2022-07-23T14:22:33;26.10;71.30
38910;DHT22;24676;51.360;12.354;2022-07-23T14:25:17;26.10;73.70
38910;DHT22;24676;51.360;12.354;2022-07-23T14:28:02;26.10;71.10
38910;DHT22;24676;51.360;12.354;2022-07-23T14:30:46;26.10;69.90
38910;DHT22;24676;51.360;12.354;2022-07-23T14:33:30;25.90;71.80
38910;DHT22;24676;51.360;12.354;2022-07-23T14:36:15;25.90;72.60
38910;DHT22;24676;51.360;12.354;2022-07-23T14:39:00;25.80;73.10
38910;DHT22;24676;51.360;12.354;2022-07-23T14:41:44;25.70;72.70
38910;DHT22;24676;51.360;12.354;2022-07-23T14:44:29;25.70;73.30
38910;DHT22;24676;51.360;12.354;2022-07-23T14:47:13;25.80;73.00
38910;DHT22;24676;51.360;12.354;2022-07-23T14:49:58;25.80;72.60
38910;DHT22;24676;51.360;12.354;2022-07-23T14:52:42;25.70;72.10
38910;DHT22;24676;51.360;12.354;2022-07-23T14:55:26;25.70;72.60
38910;DHT22;24676;51.360;12.354;2022-07-23T14:58:10;25.80;72.60
38910;DHT22;24676;51.360;12.354;2022-07-23T15:00:55;25.70;71.60
38910;DHT22;24676;51.360;12.354;2022-07-23T15:03:39;25.80;72.10
38910;DHT22;24676;51.360;12.354;2022-07-23T15:06:24;25.70;70.40
38910;DHT22;24676;51.360;12.354;2022-07-23T15:09:08;25.80;69.80
38910;DHT22;24676;51.360;12.354;2022-07-23T15:11:52;25.80;70.70
38910;DHT22;24676;51.360;12.354;2022-07-23T15:14:36;25.80;71.20
38910;DHT22;24676;51.360;12.354;2022-07-23T15:17:21;25.80;72.10
38910;DHT22;24676;51.360;12.354;2022-07-23T15:20:06;25.80;73.50
38910;DHT22;24676;51.360;12.354;2022-07-23T15:22:50;25.70;72.10
38910;DHT22;24676;51.360;12.354;2022-07-23T15:25:35;25.70;73.00
38910;DHT22;24676;51.360;12.354;2022-07-23T15:28:19;25.70;72.10
38910;DHT22;24676;51.360;12.354;2022-07-23T15:31:03;25.60;72.60
38910;DHT22;24676;51.360;12.354;2022-07-23T15:33:48;25.50;72.70
38910;DHT22;24676;51.360;12.354;2022-07-23T15:36:32;25.50;73.50
38910;DHT22;24676;51.360;12.354;2022-07-23T15:39:16;25.50;72.50
38910;DHT22;24676;51.360;12.354;2022-07-23T15:42:02;25.50;71.50
38910;DHT22;24676;51.360;12.354;2022-07-23T15:44:46;25.50;73.10
38910;DHT22;24676;51.360;12.354;2022-07-23T15:47:31;25.50;72.80
38910;DHT22;24676;51.360;12.354;2022-07-23T15:50:15;25.60;72.10
38910;DHT22;24676;51.360;12.354;2022-07-23T15:52:59;25.60;72.30
38910;DHT22;24676;51.360;12.354;2022-07-23T15:55:45;25.60;72.60
38910;DHT22;24676;51.360;12.354;2022-07-23T15:58:29;25.50;72.90
38910;DHT22;24676;51.360;12.354;2022-07-23T16:01:14;25.50;71.90
38910;DHT22;24676;51.360;12.354;2022-07-23T16:03:58;25.50;72.20
38910;DHT22;24676;51.360;12.354;2022-07-23T16:06:43;25.70;73.30
38910;DHT22;24676;51.360;12.354;2022-07-23T16:09:27;25.70;71.40
38910;DHT22;24676;51.360;12.354;2022-07-23T16:12:12;25.70;70.90
38910;DHT22;24676;51.360;12.354;2022-07-23T16:14:56;25.70;71.30
38910;DHT22;24676;51.360;12.354;2022-07-23T16:17:40;25.70;72.00
38910;DHT22;24676;51.360;12.354;2022-07-23T16:20:25;25.70;72.20
38910;DHT22;24676;51.360;12.354;2022-07-23T16:23:09;25.70;72.40
38910;DHT22;24676;51.360;12.354;2022-07-23T16:25:53;25.70;72.10
38910;DHT22;24676;51.360;12.354;2022-07-23T16:28:39;25.70;72.70
38910;DHT22;24676;51.360;12.354;2022-07-23T16:31:24;25.60;73.60
38910;DHT22;24676;51.360;12.354;2022-07-23T16:34:09;25.50;72.90
38910;DHT22;24676;51.360;12.354;2022-07-23T16:36:53;25.50;73.00
38910;DHT22;24676;51.360;12.354;2022-07-23T16:39:38;25.40;72.70
38910;DHT22;24676;51.360;12.354;2022-07-23T16:42:23;25.30;72.00
38910;DHT22;24676;51.360;12.354;2022-07-23T16:45:07;25.10;72.90
38910;DHT22;24676;51.360;12.354;2022-07-23T16:47:52;25.00;73.20
38910;DHT22;24676;51.360;12.354;2022-07-23T16:50:36;25.00;74.80
38910;DHT22;24676;51.360;12.354;2022-07-23T16:53:21;24.90;75.20
38910;DHT22;24676;51.360;12.354;2022-07-23T16:56:05;24.90;74.80
38910;DHT22;24676;51.360;12.354;2022-07-23T16:58:51;24.90;73.30
38910;DHT22;24676;51.360;12.354;2022-07-23T17:01:35;24.90;73.80
38910;DHT22;24676;51.360;12.354;2022-07-23T17:04:19;25.00;74.40
38910;DHT22;24676;51.360;12.354;2022-07-23T17:07:04;25.00;72.50
38910;DHT22;24676;51.360;12.354;2022-07-23T17:09:48;25.00;71.90
38910;DHT22;24676;51.360;12.354;2022-07-23T17:12:33;25.00;69.90
38910;DHT22;24676;51.360;12.354;2022-07-23T17:15:18;24.90;70.10
38910;DHT22;24676;51.360;12.354;2022-07-23T17:18:03;24.90;68.50
38910;DHT22;24676;51.360;12.354;2022-07-23T17:20:48;24.70;69.00
38910;DHT22;24676;51.360;12.354;2022-07-23T17:23:33;24.60;69.70
38910;DHT22;24676;51.360;12.354;2022-07-23T17:26:18;24.50;70.00
38910;DHT22;24676;51.360;12.354;2022-07-23T17:29:02;24.50;70.10
38910;DHT22;24676;51.360;12.354;2022-07-23T17:31:47;24.40;71.30
38910;DHT22;24676;51.360;12.354;2022-07-23T17:34:31;24.30;71.60
38910;DHT22;24676;51.360;12.354;2022-07-23T17:37:15;24.30;72.00
38910;DHT22;24676;51.360;12.354;2022-07-23T17:40:01;24.20;72.00
38910;DHT22;24676;51.360;12.354;2022-07-23T17:42:45;24.10;73.00
38910;DHT22;24676;51.360;12.354;2022-07-23T17:45:29;24.00;73.70
38910;DHT22;24676;51.360;12.354;2022-07-23T17:48:14;23.80;75.10
38910;DHT22;24676;51.360;12.354;2022-07-23T17:50:58;23.70;75.70
38910;DHT22;24676;51.360;12.354;2022-07-23T17:53:42;23.60;76.30
38910;DHT22;24676;51.360;12.354;2022-07-23T17:56:26;23.50;77.20
38910;DHT22;24676;51.360;12.354;2022-07-23T17:59:11;23.50;77.70
38910;DHT22;24676;51.360;12.354;2022-07-23T18:01:55;23.40;77.40
38910;DHT22;24676;51.360;12.354;2022-07-23T18:04:40;23.50;79.40
38910;DHT22;24676;51.360;12.354;2022-07-23T18:07:24;23.50;77.10
38910;DHT22;24676;51.360;12.354;2022-07-23T18:10:08;23.60;76.20
38910;DHT22;24676;51.360;12.354;2022-07-23T18:12:52;23.50;74.00
38910;DHT22;24676;51.360;12.354;2022-07-23T18:15:37;23.50;70.00
38910;DHT22;24676;51.360;12.354;2022-07-23T18:18:21;23.40;67.20
38910;DHT22;24676;51.360;12.354;2022-07-23T18:21:05;23.30;66.80
38910;DHT22;24676;51.360;12.354;2022-07-23T18:23:50;23.20;65.80
38910;DHT22;24676;51.360;12.354;2022-07-23T18:26:35;23.00;66.20
38910;DHT22;24676;51.360;12.354;2022-07-23T18:29:19;22.90;66.10
38910;DHT22;24676;51.360;12.354;2022-07-23T18:32:04;22.80;65.40
38910;DHT22;24676;51.360;12.354;2022-07-23T18:34:48;22.70;64.80
38910;DHT22;24676;51.360;12.354;2022-07-23T18:37:32;22.60;65.20
38910;DHT22;24676;51.360;12.354;2022-07-23T18:40:17;22.50;65.20
38910;DHT22;24676;51.360;12.354;2022-07-23T18:43:03;22.40;65.20
38910;DHT22;24676;51.360;12.354;2022-07-23T18:45:47;22.30;65.40
38910;DHT22;24676;51.360;12.354;2022-07-23T18:48:31;22.20;65.30
38910;DHT22;24676;51.360;12.354;2022-07-23T18:51:15;22.10;65.90
38910;DHT22;24676;51.360;12.354;2022-07-23T18:53:59;21.90;66.80
38910;DHT22;24676;51.360;12.354;2022-07-23T18:56:44;21.80;67.40
38910;DHT22;24676;51.360;12.354;2022-07-23T18:59:28;21.70;67.60
38910;DHT22;24676;51.360;12.354;2022-07-23T19:02:13;21.60;67.90
38910;DHT22;24676;51.360;12.354;2022-07-23T19:04:57;21.50;68.60
38910;DHT22;24676;51.360;12.354;2022-07-23T19:07:42;21.40;68.80
38910;DHT22;24676;51.360;12.354;2022-07-23T19:10:26;21.30;69.70
38910;DHT22;24676;51.360;12.354;2022-07-23T19:13:10;21.10;70.00
38910;DHT22;24676;51.360;12.354;2022-07-23T19:15:55;21.00;70.50
38910;DHT22;24676;51.360;12.354;2022-07-23T19:18:41;20.80;71.40
38910;DHT22;24676;51.360;12.354;2022-07-23T19:21:26;20.70;72.20
38910;DHT22;24676;51.360;12.354;2022-07-23T19:24:10;20.60;72.50
38910;DHT22;24676;51.360;12.354;2022-07-23T19:26:55;20.50;72.70
38910;DHT22;24676;51.360;12.354;2022-07-23T19:29:39;20.50;73.40
38910;DHT22;24676;51.360;12.354;2022-07-23T19:32:24;20.40;73.60
38910;DHT22;24676;51.360;12.354;2022-07-23T19:35:08;20.30;74.10
38910;DHT22;24676;51.360;12.354;2022-07-23T19:37:52;20.20;74.40
38910;DHT22;24676;51.360;12.354;2022-07-23T19:40:36;20.10;74.40
38910;DHT22;24676;51.360;12.354;2022-07-23T19:43:21;20.00;75.10
38910;DHT22;24676;51.360;12.354;2022-07-23T19:46:05;19.90;75.60
38910;DHT22;24676;51.360;12.354;2022-07-23T19:48:49;19.90;75.50
38910;DHT22;24676;51.360;12.354;2022-07-23T19:51:34;19.80;76.50
38910;DHT22;24676;51.360;12.354;2022-07-23T19:54:18;19.80;75.70
38910;DHT22;24676;51.360;12.354;2022-07-23T19:57:03;19.70;75.30
38910;DHT22;24676;51.360;12.354;2022-07-23T19:59:47;19.70;75.50
38910;DHT22;24676;51.360;12.354;2022-07-23T20:02:31;19.60;76.20
38910;DHT22;24676;51.360;12.354;2022-07-23T20:05:15;19.50;77.00
38910;DHT22;24676;51.360;12.354;2022-07-23T20:07:59;19.50;77.20
38910;DHT22;24676;51.360;12.354;2022-07-23T20:10:44;19.40;77.00
38910;DHT22;24676;51.360;12.354;2022-07-23T20:13:28;19.30;77.20
38910;DHT22;24676;51.360;12.354;2022-07-23T20:16:12;19.30;77.80
38910;DHT22;24676;51.360;12.354;2022-07-23T20:18:57;19.20;78.40
38910;DHT22;24676;51.360;12.354;2022-07-23T20:21:41;19.10;79.00
38910;DHT22;24676;51.360;12.354;2022-07-23T20:24:29;19.00;81.70
38910;DHT22;24676;51.360;12.354;2022-07-23T20:27:14;19.00;84.20
38910;DHT22;24676;51.360;12.354;2022-07-23T20:29:58;18.90;89.50
38910;DHT22;24676;51.360;12.354;2022-07-23T20:32:43;18.80;91.80
38910;DHT22;24676;51.360;12.354;2022-07-23T20:35:27;18.70;95.70
38910;DHT22;24676;51.360;12.354;2022-07-23T20:38:11;18.60;97.80
38910;DHT22;24676;51.360;12.354;2022-07-23T20:40:56;18.50;99.60
38910;DHT22;24676;51.360;12.354;2022-07-23T20:43:41;18.40;99.60
38910;DHT22;24676;51.360;12.354;2022-07-23T20:46:27;18.30;99.90
38910;DHT22;24676;51.360;12.354;2022-07-23T20:49:11;18.20;99.90
38910;DHT22;24676;51.360;12.354;2022-07-23T20:51:55;18.20;99.90
38910;DHT22;24676;51.360;12.354;2022-07-23T20:54:40;18.10;99.90
38910;DHT22;24676;51.360;12.354;2022-07-23T20:57:24;18.10;99.90
